sensor_id;sensor_type;location;lat;lon;timestamp;P1;durP1;ratioP1;P2;durP2;ratioP2
21671;SDS011;10997;52.242;8.168;2023-12-14T00:02:16;19.83;;;12.20;;
21671;SDS011;10997;52.242;8.168;2023-12-14T00:07:17;15.88;;;10.95;;
21671;SDS011;10997;52.242;8.168;2023-12-14T00:12:18;16.90;;;11.00;;
21671;SDS011;10997;52.242;8.168;2023-12-14T00:17:18;15.80;;;10.98;;
21671;SDS011;10997;52.242;8.168;2023-12-14T00:22:19;18.48;;;12.02;;
21671;SDS011;10997;52.242;8.168;2023-12-14T00:27:19;19.75;;;12.05;;
21671;SDS011;10997;52.242;8.168;2023-12-14T00:32:20;17.92;;;11.27;;
21671;SDS011;10997;52.242;8.168;2023-12-14T00:37:21;18.00;;;10.80;;
21671;SDS011;10997;52.242;8.168;2023-12-14T00:42:21;17.17;;;11.30;;
21671;SDS011;10997;52.242;8.168;2023-12-14T00:47:22;15.60;;;10.57;;
21671;SDS011;10997;52.242;8.168;2023-12-14T00:52:22;13.90;;;9.15;;
21671;SDS011;10997;52.242;8.168;2023-12-14T00:57:23;14.60;;;9.68;;
21671;SDS011;10997;52.242;8.168;2023-12-14T01:02:24;13.25;;;8.90;;
21671;SDS011;10997;52.242;8.168;2023-12-14T01:07:24;13.70;;;9.00;;
21671;SDS011;10997;52.242;8.168;2023-12-14T01:12:25;12.98;;;9.02;;
21671;SDS011;10997;52.242;8.168;2023-12-14T01:17:25;13.35;;;9.35;;
21671;SDS011;10997;52.242;8.168;2023-12-14T01:22:27;14.20;;;9.90;;
21671;SDS011;10997;52.242;8.168;2023-12-14T01:27:28;17.13;;;10.80;;
21671;SDS011;10997;52.242;8.168;2023-12-14T01:32:29;18.23;;;11.95;;
21671;SDS011;10997;52.242;8.168;2023-12-14T01:37:29;16.63;;;11.73;;
21671;SDS011;10997;52.242;8.168;2023-12-14T01:42:30;17.02;;;11.90;;
21671;SDS011;10997;52.242;8.168;2023-12-14T01:47:30;17.00;;;11.60;;
21671;SDS011;10997;52.242;8.168;2023-12-14T01:52:31;17.17;;;11.70;;
21671;SDS011;10997;52.242;8.168;2023-12-14T01:57:32;16.15;;;10.98;;
21671;SDS011;10997;52.242;8.168;2023-12-14T02:02:32;16.75;;;11.70;;
21671;SDS011;10997;52.242;8.168;2023-12-14T02:07:35;14.23;;;10.15;;
21671;SDS011;10997;52.242;8.168;2023-12-14T02:12:36;15.27;;;10.65;;
21671;SDS011;10997;52.242;8.168;2023-12-14T02:17:36;14.30;;;9.93;;
21671;SDS011;10997;52.242;8.168;2023-12-14T02:22:50;15.80;;;10.43;;
21671;SDS011;10997;52.242;8.168;2023-12-14T02:27:51;15.65;;;10.70;;
21671;SDS011;10997;52.242;8.168;2023-12-14T02:32:51;18.63;;;11.95;;
21671;SDS011;10997;52.242;8.168;2023-12-14T02:37:52;17.25;;;11.88;;
21671;SDS011;10997;52.242;8.168;2023-12-14T02:42:53;16.30;;;12.00;;
21671;SDS011;10997;52.242;8.168;2023-12-14T02:47:54;17.17;;;12.10;;
21671;SDS011;10997;52.242;8.168;2023-12-14T02:52:55;18.77;;;12.02;;
21671;SDS011;10997;52.242;8.168;2023-12-14T02:57:56;17.05;;;12.07;;
21671;SDS011;10997;52.242;8.168;2023-12-14T03:02:56;16.60;;;11.40;;
21671;SDS011;10997;52.242;8.168;2023-12-14T03:07:57;17.45;;;11.95;;
21671;SDS011;10997;52.242;8.168;2023-12-14T03:12:57;16.58;;;12.13;;
21671;SDS011;10997;52.242;8.168;2023-12-14T03:17:58;16.98;;;12.52;;
21671;SDS011;10997;52.242;8.168;2023-12-14T03:22:59;18.92;;;13.50;;
21671;SDS011;10997;52.242;8.168;2023-12-14T03:27:59;17.27;;;12.27;;
21671;SDS011;10997;52.242;8.168;2023-12-14T03:33:00;19.17;;;13.10;;
21671;SDS011;10997;52.242;8.168;2023-12-14T03:38:01;17.35;;;12.20;;
21671;SDS011;10997;52.242;8.168;2023-12-14T03:43:01;17.98;;;12.57;;
21671;SDS011;10997;52.242;8.168;2023-12-14T03:48:03;17.85;;;13.10;;
21671;SDS011;10997;52.242;8.168;2023-12-14T03:53:04;17.55;;;12.90;;
21671;SDS011;10997;52.242;8.168;2023-12-14T03:58:04;16.58;;;12.65;;
21671;SDS011;10997;52.242;8.168;2023-12-14T04:03:05;17.30;;;12.60;;
21671;SDS011;10997;52.242;8.168;2023-12-14T04:08:06;16.20;;;11.93;;
21671;SDS011;10997;52.242;8.168;2023-12-14T04:13:06;16.63;;;12.05;;
21671;SDS011;10997;52.242;8.168;2023-12-14T04:18:07;16.27;;;11.82;;
21671;SDS011;10997;52.242;8.168;2023-12-14T04:23:08;17.40;;;12.68;;
21671;SDS011;10997;52.242;8.168;2023-12-14T04:28:09;17.02;;;11.77;;
21671;SDS011;10997;52.242;8.168;2023-12-14T04:33:11;16.63;;;11.50;;
21671;SDS011;10997;52.242;8.168;2023-12-14T04:38:11;14.82;;;11.18;;
21671;SDS011;10997;52.242;8.168;2023-12-14T04:43:12;13.85;;;11.05;;
21671;SDS011;10997;52.242;8.168;2023-12-14T04:48:13;13.00;;;10.40;;
21671;SDS011;10997;52.242;8.168;2023-12-14T04:53:14;14.07;;;10.52;;
21671;SDS011;10997;52.242;8.168;2023-12-14T04:58:14;11.98;;;9.60;;
21671;SDS011;10997;52.242;8.168;2023-12-14T05:03:15;13.50;;;9.52;;
21671;SDS011;10997;52.242;8.168;2023-12-14T05:08:16;12.90;;;9.70;;
21671;SDS011;10997;52.242;8.168;2023-12-14T05:13:16;11.85;;;9.32;;
21671;SDS011;10997;52.242;8.168;2023-12-14T05:18:17;11.90;;;9.23;;
21671;SDS011;10997;52.242;8.168;2023-12-14T05:23:18;11.50;;;9.50;;
21671;SDS011;10997;52.242;8.168;2023-12-14T05:28:19;14.38;;;10.68;;
21671;SDS011;10997;52.242;8.168;2023-12-14T05:33:19;11.57;;;9.88;;
21671;SDS011;10997;52.242;8.168;2023-12-14T05:38:20;12.10;;;9.35;;
21671;SDS011;10997;52.242;8.168;2023-12-14T05:43:20;12.50;;;9.57;;
21671;SDS011;10997;52.242;8.168;2023-12-14T05:48:21;12.02;;;9.60;;
21671;SDS011;10997;52.242;8.168;2023-12-14T05:53:22;14.20;;;10.10;;
21671;SDS011;10997;52.242;8.168;2023-12-14T05:58:22;13.52;;;10.50;;
21671;SDS011;10997;52.242;8.168;2023-12-14T06:03:23;12.50;;;9.93;;
21671;SDS011;10997;52.242;8.168;2023-12-14T06:08:24;12.85;;;10.90;;
21671;SDS011;10997;52.242;8.168;2023-12-14T06:13:25;12.52;;;10.75;;
21671;SDS011;10997;52.242;8.168;2023-12-14T06:18:25;14.30;;;10.85;;
21671;SDS011;10997;52.242;8.168;2023-12-14T06:23:26;14.27;;;11.35;;
21671;SDS011;10997;52.242;8.168;2023-12-14T06:28:27;16.33;;;12.07;;
21671;SDS011;10997;52.242;8.168;2023-12-14T06:33:27;18.60;;;12.77;;
21671;SDS011;10997;52.242;8.168;2023-12-14T06:38:28;14.82;;;11.10;;
21671;SDS011;10997;52.242;8.168;2023-12-14T06:43:28;11.98;;;10.15;;
21671;SDS011;10997;52.242;8.168;2023-12-14T06:48:29;13.48;;;10.65;;
21671;SDS011;10997;52.242;8.168;2023-12-14T06:53:30;12.88;;;10.45;;
21671;SDS011;10997;52.242;8.168;2023-12-14T06:58:30;12.65;;;9.82;;
21671;SDS011;10997;52.242;8.168;2023-12-14T07:03:31;14.90;;;10.90;;
21671;SDS011;10997;52.242;8.168;2023-12-14T07:08:32;14.65;;;10.73;;
21671;SDS011;10997;52.242;8.168;2023-12-14T07:13:32;13.98;;;10.15;;
21671;SDS011;10997;52.242;8.168;2023-12-14T07:18:37;18.67;;;11.07;;
21671;SDS011;10997;52.242;8.168;2023-12-14T07:23:38;13.85;;;11.07;;
21671;SDS011;10997;52.242;8.168;2023-12-14T07:28:39;12.48;;;9.98;;
21671;SDS011;10997;52.242;8.168;2023-12-14T07:33:39;12.82;;;9.98;;
21671;SDS011;10997;52.242;8.168;2023-12-14T07:38:40;10.80;;;8.85;;
21671;SDS011;10997;52.242;8.168;2023-12-14T07:43:40;12.85;;;9.70;;
21671;SDS011;10997;52.242;8.168;2023-12-14T07:48:41;11.45;;;8.77;;
21671;SDS011;10997;52.242;8.168;2023-12-14T07:53:41;11.75;;;8.88;;
21671;SDS011;10997;52.242;8.168;2023-12-14T07:58:42;11.88;;;8.55;;
21671;SDS011;10997;52.242;8.168;2023-12-14T08:03:43;11.75;;;9.00;;
21671;SDS011;10997;52.242;8.168;2023-12-14T08:08:44;13.02;;;9.63;;
21671;SDS011;10997;52.242;8.168;2023-12-14T08:13:44;12.20;;;9.38;;
21671;SDS011;10997;52.242;8.168;2023-12-14T08:18:45;11.45;;;8.98;;
21671;SDS011;10997;52.242;8.168;2023-12-14T08:23:48;11.07;;;9.02;;
21671;SDS011;10997;52.242;8.168;2023-12-14T08:28:49;10.82;;;9.10;;
21671;SDS011;10997;52.242;8.168;2023-12-14T08:33:49;10.73;;;8.95;;
21671;SDS011;10997;52.242;8.168;2023-12-14T08:38:52;14.70;;;12.45;;
21671;SDS011;10997;52.242;8.168;2023-12-14T08:43:52;16.83;;;13.07;;
21671;SDS011;10997;52.242;8.168;2023-12-14T08:48:55;11.60;;;9.68;;
21671;SDS011;10997;52.242;8.168;2023-12-14T08:53:56;10.82;;;9.65;;
21671;SDS011;10997;52.242;8.168;2023-12-14T08:58:56;10.20;;;8.90;;
21671;SDS011;10997;52.242;8.168;2023-12-14T09:03:59;11.65;;;9.52;;
21671;SDS011;10997;52.242;8.168;2023-12-14T09:09:00;12.63;;;10.05;;
21671;SDS011;10997;52.242;8.168;2023-12-14T09:14:00;14.85;;;10.65;;
21671;SDS011;10997;52.242;8.168;2023-12-14T09:19:02;14.57;;;11.13;;
21671;SDS011;10997;52.242;8.168;2023-12-14T09:24:03;14.18;;;11.10;;
21671;SDS011;10997;52.242;8.168;2023-12-14T09:29:04;12.57;;;10.77;;
21671;SDS011;10997;52.242;8.168;2023-12-14T09:34:04;12.57;;;10.63;;
21671;SDS011;10997;52.242;8.168;2023-12-14T09:39:05;12.32;;;10.68;;
21671;SDS011;10997;52.242;8.168;2023-12-14T09:44:10;11.60;;;10.40;;
21671;SDS011;10997;52.242;8.168;2023-12-14T09:49:11;11.63;;;10.43;;
21671;SDS011;10997;52.242;8.168;2023-12-14T09:54:13;12.50;;;10.65;;
21671;SDS011;10997;52.242;8.168;2023-12-14T09:59:13;13.00;;;11.25;;
21671;SDS011;10997;52.242;8.168;2023-12-14T10:04:15;12.25;;;10.95;;
21671;SDS011;10997;52.242;8.168;2023-12-14T10:09:22;12.45;;;10.70;;
21671;SDS011;10997;52.242;8.168;2023-12-14T10:14:24;11.90;;;10.13;;
21671;SDS011;10997;52.242;8.168;2023-12-14T10:19:25;12.35;;;11.05;;
21671;SDS011;10997;52.242;8.168;2023-12-14T10:24:26;12.13;;;10.93;;
21671;SDS011;10997;52.242;8.168;2023-12-14T10:29:27;13.30;;;11.82;;
21671;SDS011;10997;52.242;8.168;2023-12-14T10:34:27;12.15;;;10.95;;
21671;SDS011;10997;52.242;8.168;2023-12-14T10:39:28;10.88;;;9.32;;
21671;SDS011;10997;52.242;8.168;2023-12-14T10:44:30;10.48;;;9.38;;
21671;SDS011;10997;52.242;8.168;2023-12-14T10:49:37;10.30;;;9.20;;
21671;SDS011;10997;52.242;8.168;2023-12-14T10:54:38;12.02;;;9.43;;
21671;SDS011;10997;52.242;8.168;2023-12-14T10:59:41;10.38;;;8.93;;
21671;SDS011;10997;52.242;8.168;2023-12-14T11:05:00;11.55;;;8.80;;
21671;SDS011;10997;52.242;8.168;2023-12-14T11:10:06;10.02;;;9.02;;
21671;SDS011;10997;52.242;8.168;2023-12-14T11:15:07;10.77;;;9.48;;
21671;SDS011;10997;52.242;8.168;2023-12-14T11:20:25;10.35;;;8.55;;
21671;SDS011;10997;52.242;8.168;2023-12-14T11:25:27;9.63;;;8.23;;
21671;SDS011;10997;52.242;8.168;2023-12-14T11:30:27;10.23;;;8.02;;
21671;SDS011;10997;52.242;8.168;2023-12-14T11:35:29;11.00;;;8.80;;
21671;SDS011;10997;52.242;8.168;2023-12-14T11:40:30;10.70;;;9.60;;
21671;SDS011;10997;52.242;8.168;2023-12-14T11:45:31;10.57;;;9.48;;
21671;SDS011;10997;52.242;8.168;2023-12-14T11:50:32;12.07;;;10.88;;
21671;SDS011;10997;52.242;8.168;2023-12-14T11:55:33;13.07;;;10.75;;
21671;SDS011;10997;52.242;8.168;2023-12-14T12:00:38;14.25;;;11.52;;
21671;SDS011;10997;52.242;8.168;2023-12-14T12:05:40;12.35;;;11.13;;
21671;SDS011;10997;52.242;8.168;2023-12-14T12:10:42;12.68;;;10.95;;
21671;SDS011;10997;52.242;8.168;2023-12-14T12:15:44;14.32;;;11.40;;
21671;SDS011;10997;52.242;8.168;2023-12-14T12:20:44;11.75;;;10.48;;
21671;SDS011;10997;52.242;8.168;2023-12-14T12:25:45;16.17;;;12.20;;
21671;SDS011;10997;52.242;8.168;2023-12-14T12:30:46;15.27;;;11.73;;
21671;SDS011;10997;52.242;8.168;2023-12-14T12:35:46;14.77;;;12.57;;
21671;SDS011;10997;52.242;8.168;2023-12-14T12:40:47;15.30;;;12.48;;
21671;SDS011;10997;52.242;8.168;2023-12-14T12:45:48;17.05;;;13.52;;
21671;SDS011;10997;52.242;8.168;2023-12-14T12:50:48;17.85;;;15.18;;
21671;SDS011;10997;52.242;8.168;2023-12-14T12:55:49;18.67;;;14.93;;
21671;SDS011;10997;52.242;8.168;2023-12-14T13:00:50;18.40;;;15.52;;
21671;SDS011;10997;52.242;8.168;2023-12-14T13:05:51;18.73;;;15.45;;
21671;SDS011;10997;52.242;8.168;2023-12-14T13:10:52;23.33;;;17.65;;
21671;SDS011;10997;52.242;8.168;2023-12-14T13:15:53;24.65;;;18.55;;
21671;SDS011;10997;52.242;8.168;2023-12-14T13:20:54;22.15;;;17.17;;
21671;SDS011;10997;52.242;8.168;2023-12-14T13:25:55;22.58;;;18.20;;
21671;SDS011;10997;52.242;8.168;2023-12-14T13:30:55;26.17;;;17.63;;
21671;SDS011;10997;52.242;8.168;2023-12-14T13:35:56;24.70;;;17.45;;
21671;SDS011;10997;52.242;8.168;2023-12-14T13:40:57;24.48;;;17.95;;
21671;SDS011;10997;52.242;8.168;2023-12-14T13:45:59;24.30;;;17.45;;
21671;SDS011;10997;52.242;8.168;2023-12-14T13:50:59;23.25;;;17.58;;
21671;SDS011;10997;52.242;8.168;2023-12-14T13:56:00;25.52;;;18.23;;
21671;SDS011;10997;52.242;8.168;2023-12-14T14:01:01;26.92;;;18.42;;
21671;SDS011;10997;52.242;8.168;2023-12-14T14:06:01;25.02;;;17.75;;
21671;SDS011;10997;52.242;8.168;2023-12-14T14:11:02;25.75;;;16.40;;
21671;SDS011;10997;52.242;8.168;2023-12-14T14:16:03;25.98;;;17.30;;
21671;SDS011;10997;52.242;8.168;2023-12-14T14:21:05;28.88;;;17.52;;
21671;SDS011;10997;52.242;8.168;2023-12-14T14:26:07;23.30;;;16.65;;
21671;SDS011;10997;52.242;8.168;2023-12-14T14:31:08;24.42;;;16.85;;
21671;SDS011;10997;52.242;8.168;2023-12-14T14:36:09;25.08;;;16.63;;
21671;SDS011;10997;52.242;8.168;2023-12-14T14:41:10;24.38;;;16.40;;
21671;SDS011;10997;52.242;8.168;2023-12-14T14:46:11;25.42;;;16.88;;
21671;SDS011;10997;52.242;8.168;2023-12-14T14:51:11;22.38;;;15.57;;
21671;SDS011;10997;52.242;8.168;2023-12-14T14:56:12;23.75;;;15.75;;
21671;SDS011;10997;52.242;8.168;2023-12-14T15:01:13;24.23;;;15.80;;
21671;SDS011;10997;52.242;8.168;2023-12-14T15:06:13;25.33;;;16.27;;
21671;SDS011;10997;52.242;8.168;2023-12-14T15:11:14;23.13;;;15.98;;
21671;SDS011;10997;52.242;8.168;2023-12-14T15:16:15;22.17;;;15.25;;
21671;SDS011;10997;52.242;8.168;2023-12-14T15:21:15;25.73;;;15.50;;
21671;SDS011;10997;52.242;8.168;2023-12-14T15:26:16;24.65;;;15.77;;
21671;SDS011;10997;52.242;8.168;2023-12-14T15:31:17;25.02;;;15.35;;
21671;SDS011;10997;52.242;8.168;2023-12-14T15:36:17;24.73;;;15.73;;
21671;SDS011;10997;52.242;8.168;2023-12-14T15:41:18;26.38;;;16.15;;
21671;SDS011;10997;52.242;8.168;2023-12-14T15:46:19;35.08;;;22.30;;
21671;SDS011;10997;52.242;8.168;2023-12-14T15:51:20;27.80;;;17.85;;
21671;SDS011;10997;52.242;8.168;2023-12-14T15:56:20;25.95;;;17.40;;
21671;SDS011;10997;52.242;8.168;2023-12-14T16:01:23;32.40;;;19.25;;
21671;SDS011;10997;52.242;8.168;2023-12-14T16:06:26;27.83;;;17.55;;
21671;SDS011;10997;52.242;8.168;2023-12-14T16:11:27;27.13;;;17.20;;
21671;SDS011;10997;52.242;8.168;2023-12-14T16:16:28;27.48;;;17.23;;
21671;SDS011;10997;52.242;8.168;2023-12-14T16:21:28;28.02;;;16.50;;
21671;SDS011;10997;52.242;8.168;2023-12-14T16:26:29;26.70;;;17.13;;
21671;SDS011;10997;52.242;8.168;2023-12-14T16:31:30;27.25;;;16.83;;
21671;SDS011;10997;52.242;8.168;2023-12-14T16:36:30;29.70;;;17.85;;
21671;SDS011;10997;52.242;8.168;2023-12-14T16:41:31;25.73;;;16.88;;
21671;SDS011;10997;52.242;8.168;2023-12-14T16:46:32;29.80;;;18.48;;
21671;SDS011;10997;52.242;8.168;2023-12-14T16:51:33;31.45;;;17.80;;
21671;SDS011;10997;52.242;8.168;2023-12-14T16:56:33;37.50;;;19.55;;
21671;SDS011;10997;52.242;8.168;2023-12-14T17:01:34;36.85;;;20.38;;
21671;SDS011;10997;52.242;8.168;2023-12-14T17:06:38;33.80;;;19.02;;
21671;SDS011;10997;52.242;8.168;2023-12-14T17:11:40;33.60;;;20.52;;
21671;SDS011;10997;52.242;8.168;2023-12-14T17:16:42;39.08;;;21.20;;
21671;SDS011;10997;52.242;8.168;2023-12-14T17:21:45;34.85;;;21.40;;
21671;SDS011;10997;52.242;8.168;2023-12-14T17:26:46;36.97;;;21.52;;
21671;SDS011;10997;52.242;8.168;2023-12-14T17:31:46;37.45;;;22.55;;
21671;SDS011;10997;52.242;8.168;2023-12-14T17:36:47;35.75;;;23.02;;
21671;SDS011;10997;52.242;8.168;2023-12-14T17:41:48;43.03;;;23.88;;
21671;SDS011;10997;52.242;8.168;2023-12-14T17:46:48;41.05;;;24.02;;
21671;SDS011;10997;52.242;8.168;2023-12-14T17:51:49;38.90;;;23.33;;
21671;SDS011;10997;52.242;8.168;2023-12-14T17:56:50;43.50;;;23.65;;
21671;SDS011;10997;52.242;8.168;2023-12-14T18:01:51;39.08;;;23.75;;
21671;SDS011;10997;52.242;8.168;2023-12-14T18:06:52;38.88;;;24.73;;
21671;SDS011;10997;52.242;8.168;2023-12-14T18:11:52;42.25;;;25.02;;
21671;SDS011;10997;52.242;8.168;2023-12-14T18:16:53;40.35;;;23.75;;
21671;SDS011;10997;52.242;8.168;2023-12-14T18:21:54;39.03;;;23.40;;
21671;SDS011;10997;52.242;8.168;2023-12-14T18:26:54;38.88;;;21.70;;
21671;SDS011;10997;52.242;8.168;2023-12-14T18:31:55;38.75;;;21.30;;
21671;SDS011;10997;52.242;8.168;2023-12-14T18:36:56;32.45;;;20.65;;
21671;SDS011;10997;52.242;8.168;2023-12-14T18:41:57;35.83;;;20.25;;
21671;SDS011;10997;52.242;8.168;2023-12-14T18:46:58;35.95;;;20.75;;
21671;SDS011;10997;52.242;8.168;2023-12-14T18:51:58;32.50;;;20.67;;
21671;SDS011;10997;52.242;8.168;2023-12-14T18:57:00;33.92;;;20.17;;
21671;SDS011;10997;52.242;8.168;2023-12-14T19:02:00;34.60;;;20.80;;
21671;SDS011;10997;52.242;8.168;2023-12-14T19:07:01;36.05;;;20.27;;
21671;SDS011;10997;52.242;8.168;2023-12-14T19:12:02;34.03;;;20.40;;
21671;SDS011;10997;52.242;8.168;2023-12-14T19:17:03;37.05;;;20.48;;
21671;SDS011;10997;52.242;8.168;2023-12-14T19:22:04;39.17;;;21.40;;
21671;SDS011;10997;52.242;8.168;2023-12-14T19:27:05;33.88;;;20.58;;
21671;SDS011;10997;52.242;8.168;2023-12-14T19:32:06;32.80;;;20.30;;
21671;SDS011;10997;52.242;8.168;2023-12-14T19:37:08;34.35;;;20.30;;
21671;SDS011;10997;52.242;8.168;2023-12-14T19:42:09;36.40;;;20.00;;
21671;SDS011;10997;52.242;8.168;2023-12-14T19:47:10;32.05;;;19.50;;
21671;SDS011;10997;52.242;8.168;2023-12-14T19:52:10;32.10;;;18.63;;
21671;SDS011;10997;52.242;8.168;2023-12-14T19:57:11;31.13;;;19.05;;
21671;SDS011;10997;52.242;8.168;2023-12-14T20:02:12;33.20;;;19.83;;
21671;SDS011;10997;52.242;8.168;2023-12-14T20:07:13;37.25;;;20.20;;
21671;SDS011;10997;52.242;8.168;2023-12-14T20:12:13;33.85;;;20.35;;
21671;SDS011;10997;52.242;8.168;2023-12-14T20:17:14;39.22;;;20.52;;
21671;SDS011;10997;52.242;8.168;2023-12-14T20:22:14;36.20;;;19.02;;
21671;SDS011;10997;52.242;8.168;2023-12-14T20:27:15;41.08;;;21.23;;
21671;SDS011;10997;52.242;8.168;2023-12-14T20:32:17;39.72;;;21.30;;
21671;SDS011;10997;52.242;8.168;2023-12-14T20:37:18;37.75;;;21.38;;
21671;SDS011;10997;52.242;8.168;2023-12-14T20:42:19;40.72;;;20.73;;
21671;SDS011;10997;52.242;8.168;2023-12-14T20:47:19;40.67;;;21.92;;
21671;SDS011;10997;52.242;8.168;2023-12-14T20:52:20;45.38;;;23.50;;
21671;SDS011;10997;52.242;8.168;2023-12-14T20:57:21;42.40;;;22.23;;
21671;SDS011;10997;52.242;8.168;2023-12-14T21:02:22;40.90;;;22.42;;
21671;SDS011;10997;52.242;8.168;2023-12-14T21:07:22;42.60;;;22.85;;
21671;SDS011;10997;52.242;8.168;2023-12-14T21:12:23;42.55;;;22.00;;
21671;SDS011;10997;52.242;8.168;2023-12-14T21:17:24;39.58;;;22.13;;
21671;SDS011;10997;52.242;8.168;2023-12-14T21:22:24;38.55;;;21.15;;
21671;SDS011;10997;52.242;8.168;2023-12-14T21:27:26;41.28;;;22.08;;
21671;SDS011;10997;52.242;8.168;2023-12-14T21:32:46;40.35;;;22.35;;
21671;SDS011;10997;52.242;8.168;2023-12-14T21:37:48;43.03;;;22.92;;
21671;SDS011;10997;52.242;8.168;2023-12-14T21:42:48;41.05;;;21.38;;
21671;SDS011;10997;52.242;8.168;2023-12-14T21:47:49;40.58;;;22.10;;
21671;SDS011;10997;52.242;8.168;2023-12-14T21:52:50;41.05;;;20.85;;
21671;SDS011;10997;52.242;8.168;2023-12-14T21:57:50;39.45;;;21.38;;
21671;SDS011;10997;52.242;8.168;2023-12-14T22:02:51;37.38;;;21.20;;
21671;SDS011;10997;52.242;8.168;2023-12-14T22:07:52;38.15;;;20.10;;
21671;SDS011;10997;52.242;8.168;2023-12-14T22:12:52;37.97;;;20.08;;
21671;SDS011;10997;52.242;8.168;2023-12-14T22:17:53;36.22;;;20.45;;
21671;SDS011;10997;52.242;8.168;2023-12-14T22:22:54;34.47;;;18.73;;
21671;SDS011;10997;52.242;8.168;2023-12-14T22:27:54;32.17;;;17.40;;
21671;SDS011;10997;52.242;8.168;2023-12-14T22:32:55;30.50;;;18.23;;
21671;SDS011;10997;52.242;8.168;2023-12-14T22:37:56;32.50;;;18.25;;
21671;SDS011;10997;52.242;8.168;2023-12-14T22:42:56;35.35;;;18.48;;
21671;SDS011;10997;52.242;8.168;2023-12-14T22:47:57;34.38;;;18.92;;
21671;SDS011;10997;52.242;8.168;2023-12-14T22:52:57;33.25;;;18.02;;
21671;SDS011;10997;52.242;8.168;2023-12-14T22:57:58;34.55;;;18.40;;
21671;SDS011;10997;52.242;8.168;2023-12-14T23:02:59;33.53;;;19.10;;
21671;SDS011;10997;52.242;8.168;2023-12-14T23:07:59;32.55;;;18.77;;
21671;SDS011;10997;52.242;8.168;2023-12-14T23:13:00;34.50;;;20.08;;
21671;SDS011;10997;52.242;8.168;2023-12-14T23:18:01;33.47;;;19.10;;
21671;SDS011;10997;52.242;8.168;2023-12-14T23:23:01;34.75;;;19.88;;
21671;SDS011;10997;52.242;8.168;2023-12-14T23:28:02;34.40;;;19.50;;
21671;SDS011;10997;52.242;8.168;2023-12-14T23:33:02;37.75;;;20.65;;
21671;SDS011;10997;52.242;8.168;2023-12-14T23:38:03;39.80;;;21.17;;
21671;SDS011;10997;52.242;8.168;2023-12-14T23:43:04;40.65;;;23.67;;
21671;SDS011;10997;52.242;8.168;2023-12-14T23:48:04;42.00;;;23.48;;
21671;SDS011;10997;52.242;8.168;2023-12-14T23:53:05;42.38;;;23.42;;
21671;SDS011;10997;52.242;8.168;2023-12-14T23:58:06;46.97;;;23.70;;
